createdAt,value
2022-12-29T00:01:11.594Z,7.44
2022-12-29T00:03:39.977Z,7.43
2022-12-29T00:06:08.124Z,7.48
2022-12-29T00:08:42.161Z,7.44
2022-12-29T00:11:14.430Z,7.49
2022-12-29T00:13:59.826Z,7.52
2022-12-29T00:16:29.250Z,7.58
2022-12-29T00:18:57.292Z,7.52
2022-12-29T00:21:44.700Z,7.60
2022-12-29T00:24:34.742Z,7.59
2022-12-29T00:27:32.186Z,7.67
2022-12-29T00:30:18.787Z,7.61
2022-12-29T00:33:04.097Z,7.59
2022-12-29T00:35:40.339Z,7.68
2022-12-29T00:38:29.287Z,7.65
2022-12-29T00:41:14.653Z,7.60
2022-12-29T00:44:01.227Z,7.63
2022-12-29T00:46:29.646Z,7.58
2022-12-29T00:49:16.853Z,7.56
2022-12-29T00:51:46.387Z,7.64
2022-12-29T00:54:15.477Z,7.59
2022-12-29T00:56:43.572Z,7.55
2022-12-29T00:59:13.444Z,7.50
2022-12-29T01:01:42.366Z,7.47
2022-12-29T01:04:11.818Z,7.58
2022-12-29T01:06:42.452Z,7.57
2022-12-29T01:09:29.486Z,7.67
2022-12-29T01:11:57.935Z,7.65
2022-12-29T01:14:28.430Z,7.65
2022-12-29T01:16:58.171Z,7.78
2022-12-29T01:19:26.713Z,7.73
2022-12-29T01:21:55.071Z,7.74
2022-12-29T01:24:23.552Z,7.84
2022-12-29T01:26:51.754Z,7.85
2022-12-29T01:29:20.104Z,7.83
2022-12-29T01:31:50.640Z,7.78
2022-12-29T01:34:19.944Z,7.79
2022-12-29T01:36:47.948Z,7.79
2022-12-29T01:39:16.073Z,7.80
2022-12-29T01:41:44.316Z,7.76
2022-12-29T01:44:53.881Z,7.70
2022-12-29T01:47:38.092Z,7.74
2022-12-29T01:50:12.597Z,7.64
2022-12-29T01:52:49.650Z,7.62
2022-12-29T01:55:18.358Z,7.56
2022-12-29T01:57:54.568Z,7.62
2022-12-29T02:00:22.819Z,7.56
2022-12-29T02:02:55.303Z,7.59
2022-12-29T02:05:32.921Z,7.53
2022-12-29T02:08:03.201Z,7.50
2022-12-29T02:10:36.751Z,7.54
2022-12-29T02:13:05.216Z,7.56
2022-12-29T02:15:51.347Z,7.59
2022-12-29T02:18:42.169Z,7.60
2022-12-29T02:21:56.370Z,7.66
2022-12-29T02:25:12.104Z,7.69
2022-12-29T02:27:57.940Z,7.71
2022-12-29T02:30:50.672Z,7.71
2022-12-29T02:33:36.238Z,7.75
2022-12-29T02:36:20.632Z,7.83
2022-12-29T02:39:01.333Z,7.76
2022-12-29T02:41:34.964Z,7.88
2022-12-29T02:44:14.510Z,7.91
2022-12-29T02:46:55.513Z,8.02
2022-12-29T02:49:35.560Z,8.04
2022-12-29T02:52:08.972Z,8.04
2022-12-29T02:54:43.546Z,8.04
2022-12-29T02:57:16.519Z,8.12
2022-12-29T02:59:50.120Z,8.21
2022-12-29T03:02:55.031Z,8.30
2022-12-29T03:05:52.460Z,8.27
2022-12-29T03:08:30.607Z,8.35
2022-12-29T03:11:04.975Z,8.27
2022-12-29T03:14:03.688Z,8.37
2022-12-29T03:16:45.811Z,8.49
2022-12-29T03:19:21.797Z,8.52
2022-12-29T03:22:15.871Z,8.62
2022-12-29T03:24:50.652Z,8.63
2022-12-29T03:27:26.246Z,8.67
2022-12-29T03:30:01.520Z,8.65
2022-12-29T03:32:38.007Z,8.69
2022-12-29T03:35:11.902Z,8.70
2022-12-29T03:37:44.984Z,8.82
2022-12-29T03:40:13.808Z,8.84
2022-12-29T03:42:43.533Z,8.80
2022-12-29T03:45:13.210Z,8.89
2022-12-29T03:47:40.981Z,8.92
2022-12-29T03:50:13.754Z,8.92
2022-12-29T03:52:42.378Z,8.96
2022-12-29T03:55:11.271Z,9.06
2022-12-29T03:57:39.333Z,8.95
2022-12-29T04:00:10.108Z,9.08
2022-12-29T04:02:38.189Z,8.97
2022-12-29T04:05:08.088Z,9.09
2022-12-29T04:07:37.234Z,9.05
2022-12-29T04:10:06.148Z,9.11
2022-12-29T04:12:34.211Z,9.10
2022-12-29T04:15:02.369Z,9.10
2022-12-29T04:17:30.452Z,9.16
2022-12-29T04:20:18.590Z,9.13
2022-12-29T04:22:47.928Z,9.19
2022-12-29T04:25:16.161Z,9.20
2022-12-29T04:27:44.210Z,9.21
2022-12-29T04:30:13.666Z,9.20
2022-12-29T04:32:42.081Z,9.23
2022-12-29T04:35:10.634Z,9.27
2022-12-29T04:37:38.663Z,9.21
2022-12-29T04:40:10.708Z,9.35
2022-12-29T04:42:38.710Z,9.39
2022-12-29T04:45:08.423Z,9.23
2022-12-29T04:48:17.578Z,9.21
2022-12-29T04:50:36.252Z,9.22
2022-12-29T04:53:07.228Z,9.31
2022-12-29T04:55:39.255Z,9.36
2022-12-29T04:58:07.246Z,9.32
2022-12-29T05:00:35.853Z,9.39
2022-12-29T05:03:03.998Z,9.41
2022-12-29T05:05:32.287Z,9.40
2022-12-29T05:08:00.337Z,9.36
2022-12-29T05:10:28.558Z,9.44
2022-12-29T05:12:57.987Z,9.42
2022-12-29T05:15:25.968Z,9.36
2022-12-29T05:17:54.102Z,9.50
2022-12-29T05:20:22.627Z,9.55
2022-12-29T05:22:50.660Z,9.58
2022-12-29T05:25:18.871Z,9.58
2022-12-29T05:27:46.907Z,9.61
2022-12-29T05:30:16.612Z,9.61
2022-12-29T05:32:45.258Z,9.61
2022-12-29T05:35:13.838Z,9.67
2022-12-29T05:37:42.748Z,9.68
2022-12-29T05:40:11.977Z,9.74
2022-12-29T05:42:40.052Z,9.80
2022-12-29T05:45:10.398Z,9.82
2022-12-29T05:47:39.709Z,9.82
2022-12-29T05:50:08.196Z,9.85
2022-12-29T05:52:36.087Z,9.93
2022-12-29T05:55:04.489Z,9.90
2022-12-29T05:57:32.529Z,9.91
2022-12-29T06:00:01.278Z,9.96
2022-12-29T06:02:29.474Z,9.86
2022-12-29T06:04:58.997Z,9.87
2022-12-29T06:07:27.055Z,9.93
2022-12-29T06:09:55.064Z,9.95
2022-12-29T06:12:23.135Z,10.00
2022-12-29T06:14:51.225Z,9.95
2022-12-29T06:17:19.210Z,9.94
2022-12-29T06:19:47.184Z,9.91
2022-12-29T06:22:16.702Z,10.04
2022-12-29T06:24:44.957Z,10.05
2022-12-29T06:27:12.994Z,10.04
2022-12-29T06:29:41.713Z,10.05
2022-12-29T06:32:09.835Z,10.11
2022-12-29T06:34:37.944Z,10.07
2022-12-29T06:37:06.115Z,10.09
2022-12-29T06:39:35.429Z,10.17
2022-12-29T06:42:03.809Z,10.21
2022-12-29T06:44:31.816Z,10.13
2022-12-29T06:46:59.977Z,10.19
2022-12-29T06:49:27.946Z,10.14
2022-12-29T06:51:59.304Z,10.14
2022-12-29T06:54:27.433Z,10.12
2022-12-29T06:57:00.227Z,10.12
2022-12-29T06:59:28.413Z,10.14
2022-12-29T07:01:56.619Z,10.13
2022-12-29T07:04:27.671Z,10.13
2022-12-29T07:06:56.205Z,10.14
2022-12-29T07:09:24.255Z,10.06
2022-12-29T07:11:52.373Z,10.02
2022-12-29T07:14:21.721Z,10.07
2022-12-29T07:16:49.690Z,10.16
2022-12-29T07:19:17.800Z,10.11
2022-12-29T07:21:45.748Z,10.12
2022-12-29T07:24:13.796Z,10.13
2022-12-29T07:26:42.694Z,10.11
2022-12-29T07:29:10.688Z,10.07
2022-12-29T07:31:40.174Z,10.07
2022-12-29T07:34:09.863Z,10.07
2022-12-29T07:36:37.952Z,10.07
2022-12-29T07:39:06.261Z,10.13
2022-12-29T07:41:34.268Z,10.16
2022-12-29T07:44:02.275Z,10.10
2022-12-29T07:46:53.759Z,10.10
2022-12-29T07:49:19.655Z,10.09
2022-12-29T07:51:47.675Z,10.10
2022-12-29T07:54:19.040Z,10.11
2022-12-29T07:56:47.447Z,10.17
2022-12-29T07:59:15.480Z,10.14
2022-12-29T08:01:43.645Z,10.19
2022-12-29T08:04:11.862Z,10.13
2022-12-29T08:06:41.983Z,10.16
2022-12-29T08:09:15.044Z,10.17
2022-12-29T08:11:45.068Z,10.14
2022-12-29T08:14:13.308Z,10.18
2022-12-29T08:16:41.305Z,10.21
2022-12-29T08:19:09.367Z,10.21
2022-12-29T08:21:37.304Z,10.22
2022-12-29T08:24:07.905Z,10.22
2022-12-29T08:26:37.777Z,10.17
2022-12-29T08:29:07.966Z,10.18
2022-12-29T08:31:38.798Z,10.16
2022-12-29T08:34:06.860Z,10.12
2022-12-29T08:36:34.908Z,10.13
2022-12-29T08:39:04.227Z,10.08
2022-12-29T08:41:36.705Z,10.06
2022-12-29T08:44:04.779Z,10.16
2022-12-29T08:46:32.886Z,10.16
2022-12-29T08:49:03.933Z,10.25
2022-12-29T08:51:32.195Z,10.28
2022-12-29T08:54:00.903Z,10.45
2022-12-29T08:56:32.357Z,10.52
2022-12-29T08:59:09.075Z,10.59
2022-12-29T09:01:41.326Z,10.57
2022-12-29T09:04:15.663Z,10.52
2022-12-29T09:06:45.326Z,10.55
2022-12-29T09:09:18.027Z,10.54
2022-12-29T09:11:48.839Z,10.57
2022-12-29T09:14:20.184Z,10.58
2022-12-29T09:17:05.793Z,10.61
2022-12-29T09:19:33.825Z,10.79
2022-12-29T09:22:02.122Z,11.10
2022-12-29T09:24:32.991Z,11.29
2022-12-29T09:27:01.017Z,11.15
2022-12-29T09:29:30.353Z,11.21
2022-12-29T09:31:58.319Z,11.20
2022-12-29T09:34:29.768Z,11.28
2022-12-29T09:36:58.368Z,11.38
2022-12-29T09:39:26.697Z,11.56
2022-12-29T09:42:08.664Z,11.47
2022-12-29T09:44:58.188Z,11.50
2022-12-29T09:47:28.851Z,11.50
2022-12-29T09:50:04.081Z,11.54
2022-12-29T09:52:46.444Z,11.55
2022-12-29T09:55:23.203Z,11.59
2022-12-29T09:57:58.640Z,11.68
2022-12-29T10:00:40.721Z,11.75
2022-12-29T10:03:18.721Z,11.73
2022-12-29T10:06:06.638Z,11.62
2022-12-29T10:08:44.649Z,11.62
2022-12-29T10:11:34.782Z,11.56
2022-12-29T10:14:30.884Z,11.56
2022-12-29T10:17:13.276Z,11.47
2022-12-29T10:20:27.352Z,11.52
2022-12-29T10:23:30.227Z,11.65
2022-12-29T10:26:00.831Z,11.80
2022-12-29T10:28:42.054Z,11.87
2022-12-29T10:31:24.043Z,11.90
2022-12-29T10:33:59.658Z,11.92
2022-12-29T10:36:39.205Z,11.93
2022-12-29T10:39:20.793Z,12.02
2022-12-29T10:41:56.347Z,12.12
2022-12-29T10:44:30.300Z,12.22
2022-12-29T10:47:02.479Z,12.26
2022-12-29T10:49:39.227Z,12.31
2022-12-29T10:52:08.865Z,12.36
2022-12-29T10:54:48.452Z,12.37
2022-12-29T10:57:28.348Z,12.41
2022-12-29T10:59:56.739Z,12.39
2022-12-29T11:02:52.873Z,12.35
2022-12-29T11:05:34.519Z,12.36
2022-12-29T11:08:10.299Z,12.36
2022-12-29T11:10:42.020Z,12.35
2022-12-29T11:13:17.152Z,12.44
2022-12-29T11:15:47.659Z,12.42
2022-12-29T11:18:25.475Z,12.37
2022-12-29T11:21:00.274Z,12.39
2022-12-29T11:23:33.563Z,12.38
2022-12-29T11:26:21.413Z,12.35
2022-12-29T11:29:07.958Z,12.33
2022-12-29T11:31:43.963Z,12.28
2022-12-29T11:34:20.701Z,12.10
2022-12-29T11:36:54.167Z,12.00
2022-12-29T11:39:35.838Z,11.93
2022-12-29T11:42:05.750Z,11.89
2022-12-29T11:44:45.245Z,11.87
2022-12-29T11:47:28.777Z,11.78
2022-12-29T11:50:02.652Z,11.54
2022-12-29T11:52:37.275Z,11.33
2022-12-29T11:55:20.527Z,11.07
2022-12-29T11:57:49.303Z,10.94
2022-12-29T12:00:21.253Z,10.86
2022-12-29T12:03:00.925Z,10.77
2022-12-29T12:05:39.856Z,10.71
2022-12-29T12:08:24.793Z,10.68
2022-12-29T12:11:00.929Z,10.60
2022-12-29T12:13:36.929Z,10.65
2022-12-29T12:16:11.739Z,10.56
2022-12-29T12:18:49.921Z,10.51
2022-12-29T12:21:34.760Z,10.42
2022-12-29T12:24:22.497Z,10.36
2022-12-29T12:27:02.933Z,10.26
2022-12-29T12:29:45.162Z,10.18
2022-12-29T12:32:19.681Z,10.19
2022-12-29T12:34:49.295Z,10.13
2022-12-29T12:37:40.648Z,10.19
2022-12-29T12:40:36.862Z,10.18
2022-12-29T12:43:36.516Z,10.22
2022-12-29T12:46:40.187Z,10.23
2022-12-29T12:49:43.875Z,10.28
2022-12-29T12:52:26.510Z,10.29
2022-12-29T12:55:25.903Z,10.28
2022-12-29T12:58:09.921Z,10.30
2022-12-29T13:00:52.027Z,10.28
2022-12-29T13:03:34.478Z,10.26
2022-12-29T13:06:24.585Z,10.24
2022-12-29T13:09:14.992Z,10.30
2022-12-29T13:12:10.858Z,10.34
2022-12-29T13:14:59.587Z,10.34
2022-12-29T13:17:43.756Z,10.32
2022-12-29T13:20:28.844Z,10.28
2022-12-29T13:23:08.083Z,10.32
2022-12-29T13:25:47.906Z,10.29
2022-12-29T13:28:26.390Z,10.30
2022-12-29T13:31:10.405Z,10.28
2022-12-29T13:33:54.035Z,10.41
2022-12-29T13:36:28.033Z,10.41
2022-12-29T13:39:12.854Z,10.44
2022-12-29T13:41:51.139Z,10.47
2022-12-29T13:44:36.081Z,10.48
2022-12-29T13:47:22.733Z,10.50
2022-12-29T13:49:53.366Z,10.55
2022-12-29T13:52:34.825Z,10.52
2022-12-29T13:55:19.711Z,10.54
2022-12-29T13:57:56.178Z,10.49
2022-12-29T14:00:31.271Z,10.49
2022-12-29T14:03:44.870Z,10.50
2022-12-29T14:06:41.280Z,10.52
2022-12-29T14:09:48.335Z,10.50
2022-12-29T14:12:35.188Z,10.43
2022-12-29T14:15:21.568Z,10.39
2022-12-29T14:18:14.406Z,10.35
2022-12-29T14:20:54.124Z,10.30
2022-12-29T14:23:37.021Z,10.29
2022-12-29T14:26:35.564Z,10.32
2022-12-29T14:29:45.254Z,10.32
2022-12-29T14:32:39.028Z,10.26
2022-12-29T14:35:43.782Z,10.29
2022-12-29T14:38:31.970Z,10.36
2022-12-29T14:41:34.114Z,10.43
2022-12-29T14:44:21.674Z,10.39
2022-12-29T14:46:59.502Z,10.41
2022-12-29T14:49:32.249Z,10.42
2022-12-29T14:52:19.629Z,10.50
2022-12-29T14:54:53.153Z,10.57
2022-12-29T14:57:43.005Z,10.59
2022-12-29T15:00:21.805Z,10.60
2022-12-29T15:03:06.639Z,10.52
2022-12-29T15:05:43.452Z,10.35
2022-12-29T15:08:15.212Z,10.26
2022-12-29T15:10:49.747Z,10.01
2022-12-29T15:13:24.139Z,9.02
2022-12-29T15:15:53.791Z,8.58
2022-12-29T15:18:27.838Z,8.55
2022-12-29T15:21:00.672Z,8.52
2022-12-29T15:23:34.730Z,8.61
2022-12-29T15:26:07.743Z,8.66
2022-12-29T15:28:42.650Z,8.88
2022-12-29T15:31:16.144Z,8.96
2022-12-29T15:33:48.436Z,9.03
2022-12-29T15:36:22.424Z,8.97
2022-12-29T15:38:52.916Z,8.98
2022-12-29T15:41:59.110Z,8.99
2022-12-29T15:44:34.411Z,9.00
2022-12-29T15:47:06.343Z,8.99
2022-12-29T15:49:35.200Z,8.91
2022-12-29T15:52:09.783Z,8.90
2022-12-29T15:54:40.117Z,8.97
2022-12-29T15:57:26.280Z,8.94
2022-12-29T15:59:55.147Z,8.91
2022-12-29T16:02:25.362Z,8.85
2022-12-29T16:05:16.663Z,8.91
2022-12-29T16:07:56.060Z,8.80
2022-12-29T16:10:38.656Z,8.65
2022-12-29T16:13:18.958Z,8.70
2022-12-29T16:15:49.362Z,8.77
2022-12-29T16:18:26.825Z,8.76
2022-12-29T16:20:56.476Z,8.82
2022-12-29T16:23:28.951Z,8.72
2022-12-29T16:25:59.564Z,8.53
2022-12-29T16:28:43.821Z,8.51
2022-12-29T16:31:23.178Z,8.61
2022-12-29T16:33:54.436Z,8.62
2022-12-29T16:36:37.023Z,8.69
2022-12-29T16:39:27.307Z,8.67
2022-12-29T16:41:57.535Z,8.82
2022-12-29T16:44:28.510Z,8.80
2022-12-29T16:47:18.369Z,8.89
2022-12-29T16:49:53.293Z,8.96
2022-12-29T16:52:26.619Z,8.87
2022-12-29T16:55:01.125Z,8.93
2022-12-29T16:57:35.247Z,9.05
2022-12-29T17:00:10.075Z,9.23
2022-12-29T17:02:45.583Z,9.28
2022-12-29T17:05:15.559Z,9.44
2022-12-29T17:07:43.380Z,9.44
2022-12-29T17:10:13.347Z,9.47
2022-12-29T17:12:45.450Z,9.57
2022-12-29T17:15:24.786Z,9.51
2022-12-29T17:17:57.467Z,9.74
2022-12-29T17:20:28.015Z,9.69
2022-12-29T17:22:56.291Z,9.82
2022-12-29T17:25:31.374Z,9.79
2022-12-29T17:28:05.258Z,9.79
2022-12-29T17:30:36.106Z,9.89
2022-12-29T17:33:08.884Z,9.88
2022-12-29T17:35:37.086Z,9.82
2022-12-29T17:38:05.783Z,9.83
2022-12-29T17:40:35.275Z,9.87
2022-12-29T17:43:04.720Z,9.84
2022-12-29T17:45:34.347Z,9.82
2022-12-29T17:48:02.316Z,9.80
2022-12-29T17:50:32.846Z,9.78
2022-12-29T17:53:06.761Z,9.75
2022-12-29T17:55:38.266Z,9.64
2022-12-29T17:58:19.398Z,9.71
2022-12-29T18:00:49.154Z,9.70
2022-12-29T18:03:17.923Z,9.64
2022-12-29T18:05:46.882Z,9.68
2022-12-29T18:08:14.932Z,9.68
2022-12-29T18:10:43.904Z,9.69
2022-12-29T18:13:23.189Z,9.83
2022-12-29T18:15:52.304Z,9.91
2022-12-29T18:18:24.250Z,9.93
2022-12-29T18:20:55.859Z,9.96
2022-12-29T18:23:26.899Z,9.89
2022-12-29T18:26:00.240Z,9.87
2022-12-29T18:28:30.350Z,9.82
2022-12-29T18:31:03.329Z,9.86
2022-12-29T18:33:33.768Z,9.84
2022-12-29T18:36:05.189Z,9.84
2022-12-29T18:38:33.536Z,9.79
2022-12-29T18:41:01.558Z,9.74
2022-12-29T18:43:31.074Z,9.78
2022-12-29T18:45:59.207Z,9.79
2022-12-29T18:48:28.063Z,9.81
2022-12-29T18:50:56.207Z,9.86
2022-12-29T18:53:26.269Z,9.81
2022-12-29T18:55:57.284Z,9.78
2022-12-29T18:58:30.577Z,9.75
2022-12-29T19:01:04.102Z,9.84
2022-12-29T19:03:33.041Z,9.77
2022-12-29T19:06:04.109Z,9.75
2022-12-29T19:08:32.216Z,9.72
2022-12-29T19:11:01.042Z,9.78
2022-12-29T19:13:29.855Z,9.84
2022-12-29T19:15:59.882Z,9.86
2022-12-29T19:18:43.681Z,9.81
2022-12-29T19:21:12.557Z,9.78
2022-12-29T19:23:41.275Z,9.64
2022-12-29T19:26:25.992Z,9.62
2022-12-29T19:28:54.028Z,9.59
2022-12-29T19:31:22.065Z,9.55
2022-12-29T19:33:51.441Z,9.55
2022-12-29T19:36:19.640Z,9.53
2022-12-29T19:38:47.964Z,9.51
2022-12-29T19:41:17.006Z,9.58
2022-12-29T19:43:45.458Z,9.58
2022-12-29T19:46:18.925Z,9.58
2022-12-29T19:48:47.132Z,9.57
2022-12-29T19:51:18.340Z,9.59
2022-12-29T19:53:48.020Z,9.53
2022-12-29T19:56:16.339Z,9.50
2022-12-29T19:58:47.486Z,9.40
2022-12-29T20:01:18.949Z,9.38
2022-12-29T20:03:47.833Z,9.31
2022-12-29T20:06:17.910Z,9.33
2022-12-29T20:08:46.138Z,9.34
2022-12-29T20:11:17.069Z,9.29
2022-12-29T20:13:46.060Z,9.26
2022-12-29T20:16:16.978Z,9.31
2022-12-29T20:18:45.580Z,9.32
2022-12-29T20:21:17.439Z,9.34
2022-12-29T20:23:46.736Z,9.40
2022-12-29T20:26:18.910Z,9.38
2022-12-29T20:28:47.981Z,9.34
2022-12-29T20:31:20.851Z,9.34
2022-12-29T20:33:49.851Z,9.33
2022-12-29T20:36:26.229Z,9.32
2022-12-29T20:38:56.758Z,9.22
2022-12-29T20:41:25.599Z,9.18
2022-12-29T20:43:54.107Z,9.20
2022-12-29T20:46:26.501Z,9.26
2022-12-29T20:48:59.195Z,9.28
2022-12-29T20:51:55.280Z,9.32
2022-12-29T20:54:19.104Z,9.36
2022-12-29T20:56:47.351Z,9.40
2022-12-29T20:59:31.474Z,9.33
2022-12-29T21:02:00.079Z,9.42
2022-12-29T21:04:38.489Z,9.41
2022-12-29T21:07:20.208Z,9.48
2022-12-29T21:09:48.557Z,9.46
2022-12-29T21:12:16.569Z,9.51
2022-12-29T21:14:46.013Z,9.53
2022-12-29T21:17:14.237Z,9.49
2022-12-29T21:19:42.441Z,9.52
2022-12-29T21:22:10.413Z,9.51
2022-12-29T21:24:39.786Z,9.48
2022-12-29T21:27:07.856Z,9.49
2022-12-29T21:29:35.966Z,9.49
2022-12-29T21:32:06.692Z,9.50
2022-12-29T21:34:35.530Z,9.51
2022-12-29T21:37:03.925Z,9.42
2022-12-29T21:39:31.913Z,9.32
2022-12-29T21:42:02.528Z,9.33
2022-12-29T21:44:48.232Z,9.25
2022-12-29T21:47:16.227Z,9.20
2022-12-29T21:49:44.301Z,9.22
2022-12-29T21:52:12.271Z,9.18
2022-12-29T21:54:58.045Z,9.11
2022-12-29T21:57:45.108Z,9.06
2022-12-29T22:00:32.028Z,9.05
2022-12-29T22:03:22.964Z,8.97
2022-12-29T22:06:10.360Z,8.94
2022-12-29T22:08:56.917Z,8.98
2022-12-29T22:11:42.221Z,8.99
2022-12-29T22:14:12.063Z,8.96
2022-12-29T22:16:40.126Z,9.00
2022-12-29T22:19:10.976Z,9.01
2022-12-29T22:21:39.156Z,8.99
2022-12-29T22:24:08.636Z,9.03
2022-12-29T22:26:36.751Z,8.98
2022-12-29T22:29:05.003Z,8.99
2022-12-29T22:31:34.451Z,9.04
2022-12-29T22:34:05.574Z,9.03
2022-12-29T22:36:34.068Z,9.10
2022-12-29T22:39:02.198Z,9.08
2022-12-29T22:41:30.338Z,9.09
2022-12-29T22:43:58.344Z,9.07
2022-12-29T22:46:26.363Z,9.05
2022-12-29T22:48:57.994Z,8.96
2022-12-29T22:51:26.320Z,8.89
2022-12-29T22:53:54.376Z,8.85
2022-12-29T22:56:22.373Z,8.84
2022-12-29T22:58:50.558Z,8.87
2022-12-29T23:01:22.716Z,8.90
2022-12-29T23:03:51.144Z,8.85
2022-12-29T23:06:20.836Z,8.86
2022-12-29T23:08:48.935Z,8.92
2022-12-29T23:11:17.532Z,8.92
2022-12-29T23:13:46.127Z,8.94
2022-12-29T23:16:15.126Z,8.84
2022-12-29T23:18:43.955Z,8.79
2022-12-29T23:21:12.787Z,8.86
2022-12-29T23:23:57.568Z,8.85
2022-12-29T23:26:28.389Z,8.83
2022-12-29T23:29:00.248Z,8.90
2022-12-29T23:31:30.266Z,8.85
2022-12-29T23:33:58.329Z,8.83
2022-12-29T23:36:26.560Z,8.83
2022-12-29T23:38:56.332Z,8.76
2022-12-29T23:41:24.453Z,8.71
2022-12-29T23:43:52.541Z,8.70
2022-12-29T23:46:24.569Z,8.67
2022-12-29T23:48:53.433Z,8.63
2022-12-29T23:51:21.997Z,8.63
2022-12-29T23:53:50.319Z,8.59
2022-12-29T23:56:22.926Z,8.58
2022-12-29T23:58:51.958Z,8.57
